LIRALIRQ

Guest
Details From LIRA - CIAMPINO
To LIRQ - Firenze
Flight Number -
Tags generated
Created
Modified
Stats Distance 135 nm / 251 km
Max Altitude 16,200 ft / 4,938 m
Waypoints 5
Social Downloads 3
Likes 0
Share VATSIM

Download

Looking for another format? Having issues loading an existing format? Contact us
Advertisement - Login to hide

Notes

Basic altitude profile: - Ascent Rate: 1500ft/min - Ascent Speed: 250kts - Cruise Altitude: 15000ft - Cruise Speed: 420kts - Descent Rate: 1500ft/min - Descent Speed: 250kts Options: - Use NATs: yes - Use PACOTS: yes - Use low airways: yes - Use high airways: yes

Route

LIRA BOL L995 KUGIX LIRQ

ID Type Via Altitude Latitude Longitude Leg Dist Tot Dist Heading (true) Name
O LIRA APT - 0 ft / 0 m 41.79923˚ 12.59492˚ - 0 nm - CIAMPINO
BOL VOR - 16,200 ft / 4,938 m 42.61833˚ 12.04861˚ 54 nm 54 nm 334° / 334° BOLSENA VORTAC
AMTEL FIX L995 (AWY-LO) 9,500 ft / 2,896 m 43.22028˚ 11.60861˚ 41 nm 95 nm 332° / 332° -
KUGIX FIX L995 (AWY-LO) 9,500 ft / 2,896 m 43.55222˚ 11.36222˚ 22 nm 118 nm 332° / 332° -
O LIRQ APT - 0 ft / 0 m 43.80998˚ 11.20512˚ 16 nm 135 nm 336° / 336° Firenze

Altitude Profile

Advertisement - Login to hide

LIRA

Details ICAO LIRA (CIA)
Name CIAMPINO
Region Italy
Timezone Europe/Rome (UTC+1.0)
Stats Elevation 427 ft / 130 m (AMSL)
Location 41.799228° 12.594917°
Runways 1
Magnetic Variation 3.058° E

METAR

LIRA 171720Z 02007KT 9999 FEW050 06/M01 Q1017

Decode

TAF

TAF LIRA 171100Z 1712/1812 02008KT 9999 SCT030

Decode

Departure Runways

ID Width Length Bearing (true) Bearing (mag) Surface Threshold Offset Overrun Length
15 154 ft / 47 m 7,246 ft / 2,209 m 152.79° 149.73° Asphalt 0 ft / 0 m 0 ft / 0 m
33 154 ft / 47 m 7,246 ft / 2,209 m 332.80° 329.74° Asphalt 0 ft / 0 m 0 ft / 0 m

LIRQ

Details ICAO LIRQ (FLR)
Name Firenze
Region Italy
Timezone Europe/Rome (UTC+1.0)
Stats Elevation 142 ft / 43 m (AMSL)
Location 43.809984° 11.205118°
Runways 1
Magnetic Variation 2.876° E

METAR

LIRQ 171720Z 09005KT CAVOK 03/M02 Q1020

Decode

TAF

TAF LIRQ 171100Z 1712/1812 03007KT 9999 SCT030

Decode

Destination Runways

ID Width Length Bearing (true) Bearing (mag) Surface Threshold Offset Overrun Length
05 98 ft / 30 m 5,420 ft / 1,652 m 48.52° 45.64° Asphalt 492 ft / 150 m 0 ft / 0 m
23 98 ft / 30 m 5,420 ft / 1,652 m 228.53° 225.65° Asphalt 2,287 ft / 697 m 0 ft / 0 m

Approach Navaids

Runway Type Ident Frequency Range Bearing (true) Bearing (mag) Slope Elevation
05 Localiser IFZ 110.30 MHz 18 nm / 33 km 48.10° 45.23° - 131 ft / 40 m (AMSL)
05 Glidescope IFZ 110.30 MHz 10 nm / 19 km 47.00° 44.12° 3.00° 144 ft / 44 m (AMSL)
05 DME IFZ 110.30 MHz 18 nm / 33 km - - - 144 ft / 44 m (AMSL)

Popular Alternatives